sensor_id;sensor_type;location;lat;lon;timestamp;pressure;altitude;pressure_sealevel;temperature;humidity
56340;BME280;42243;42.644;23.366;2023-06-10T00:00:44;94050.75;;;17.41;87.57
56340;BME280;42243;42.644;23.366;2023-06-10T00:03:11;94078.53;;;17.59;87.90
56340;BME280;42243;42.644;23.366;2023-06-10T00:05:37;94168.88;;;18.29;87.13
56340;BME280;42243;42.644;23.366;2023-06-10T00:08:04;94159.00;;;18.67;85.95
56340;BME280;42243;42.644;23.366;2023-06-10T00:10:36;94077.56;;;18.28;85.07
56340;BME280;42243;42.644;23.366;2023-06-10T00:13:02;94156.47;;;18.88;84.63
56340;BME280;42243;42.644;23.366;2023-06-10T00:15:29;94132.41;;;18.79;84.04
56340;BME280;42243;42.644;23.366;2023-06-10T00:17:54;94179.75;;;19.11;84.25
56340;BME280;42243;42.644;23.366;2023-06-10T00:20:20;94164.97;;;19.20;84.19
56340;BME280;42243;42.644;23.366;2023-06-10T00:22:47;94087.19;;;18.70;83.92
56340;BME280;42243;42.644;23.366;2023-06-10T00:25:14;94090.94;;;18.85;82.88
56340;BME280;42243;42.644;23.366;2023-06-10T00:27:40;94172.38;;;19.44;82.67
56340;BME280;42243;42.644;23.366;2023-06-10T00:30:06;94144.38;;;19.23;82.46
56340;BME280;42243;42.644;23.366;2023-06-10T00:32:35;94098.88;;;18.95;82.32
56340;BME280;42243;42.644;23.366;2023-06-10T00:35:02;94169.47;;;19.30;82.13
56340;BME280;42243;42.644;23.366;2023-06-10T00:37:27;94183.47;;;19.46;81.63
56340;BME280;42243;42.644;23.366;2023-06-10T00:39:54;94178.22;;;19.41;81.74
56340;BME280;42243;42.644;23.366;2023-06-10T00:42:20;94158.91;;;19.30;81.44
56340;BME280;42243;42.644;23.366;2023-06-10T00:44:47;94162.34;;;19.41;81.29
56340;BME280;42243;42.644;23.366;2023-06-10T00:47:13;94147.00;;;19.38;80.69
56340;BME280;42243;42.644;23.366;2023-06-10T00:49:38;94169.19;;;19.42;80.76
56340;BME280;42243;42.644;23.366;2023-06-10T00:52:06;94064.53;;;18.85;80.61
56340;BME280;42243;42.644;23.366;2023-06-10T00:54:32;94158.91;;;19.51;80.75
56340;BME280;42243;42.644;23.366;2023-06-10T00:57:00;94108.66;;;19.20;80.47
56340;BME280;42243;42.644;23.366;2023-06-10T00:59:27;94174.25;;;19.59;80.36
56340;BME280;42243;42.644;23.366;2023-06-10T01:01:53;94086.75;;;18.99;79.97
56340;BME280;42243;42.644;23.366;2023-06-10T01:04:19;94106.84;;;19.20;79.99
56340;BME280;42243;42.644;23.366;2023-06-10T01:06:56;94169.19;;;19.62;79.90
56340;BME280;42243;42.644;23.366;2023-06-10T01:10:04;94178.78;;;19.79;79.22
56340;BME280;42243;42.644;23.366;2023-06-10T01:12:34;94175.59;;;19.77;78.85
56340;BME280;42243;42.644;23.366;2023-06-10T01:15:05;94178.22;;;19.72;79.10
56340;BME280;42243;42.644;23.366;2023-06-10T01:17:31;94180.88;;;19.72;78.83
56340;BME280;42243;42.644;23.366;2023-06-10T01:19:57;94167.63;;;19.56;79.71
56340;BME280;42243;42.644;23.366;2023-06-10T01:22:27;94173.44;;;19.53;79.76
56340;BME280;42243;42.644;23.366;2023-06-10T01:24:58;94158.63;;;19.42;80.26
56340;BME280;42243;42.644;23.366;2023-06-10T01:27:27;94181.38;;;19.64;80.15
56340;BME280;42243;42.644;23.366;2023-06-10T01:29:59;94177.94;;;19.63;80.04
56340;BME280;42243;42.644;23.366;2023-06-10T01:32:50;94107.09;;;19.19;80.00
56340;BME280;42243;42.644;23.366;2023-06-10T01:35:17;94074.34;;;18.94;79.65
56340;BME280;42243;42.644;23.366;2023-06-10T01:37:45;94177.16;;;19.57;79.94
56340;BME280;42243;42.644;23.366;2023-06-10T01:40:11;94100.50;;;19.06;79.78
56340;BME280;42243;42.644;23.366;2023-06-10T01:42:38;94138.53;;;19.26;80.19
56340;BME280;42243;42.644;23.366;2023-06-10T01:45:04;94190.34;;;19.52;80.51
56340;BME280;42243;42.644;23.366;2023-06-10T01:47:29;94157.56;;;19.38;80.83
56340;BME280;42243;42.644;23.366;2023-06-10T01:49:55;94176.38;;;19.47;81.04
56340;BME280;42243;42.644;23.366;2023-06-10T01:52:20;94162.09;;;19.42;80.81
56340;BME280;42243;42.644;23.366;2023-06-10T01:54:46;94168.69;;;19.55;80.43
56340;BME280;42243;42.644;23.366;2023-06-10T01:57:11;94087.28;;;19.11;80.61
56340;BME280;42243;42.644;23.366;2023-06-10T01:59:37;94174.75;;;19.66;80.62
56340;BME280;42243;42.644;23.366;2023-06-10T02:02:04;94089.41;;;19.25;79.59
56340;BME280;42243;42.644;23.366;2023-06-10T02:04:29;94092.56;;;19.27;79.72
56340;BME280;42243;42.644;23.366;2023-06-10T02:06:55;94162.06;;;19.68;79.96
56340;BME280;42243;42.644;23.366;2023-06-10T02:09:21;94172.91;;;19.67;79.93
56340;BME280;42243;42.644;23.366;2023-06-10T02:11:48;94102.06;;;19.38;79.34
56340;BME280;42243;42.644;23.366;2023-06-10T02:14:14;94158.09;;;19.60;79.68
56340;BME280;42243;42.644;23.366;2023-06-10T02:16:39;94167.63;;;19.61;79.68
56340;BME280;42243;42.644;23.366;2023-06-10T02:19:05;94082.00;;;19.06;79.96
56340;BME280;42243;42.644;23.366;2023-06-10T02:21:32;94159.16;;;19.54;79.78
56340;BME280;42243;42.644;23.366;2023-06-10T02:23:57;94130.63;;;19.46;79.49
56340;BME280;42243;42.644;23.366;2023-06-10T02:26:23;94117.41;;;19.41;79.54
56340;BME280;42243;42.644;23.366;2023-06-10T02:28:51;94140.13;;;19.62;78.77
56340;BME280;42243;42.644;23.366;2023-06-10T02:31:16;94048.97;;;18.98;79.04
56340;BME280;42243;42.644;23.366;2023-06-10T02:33:43;94137.22;;;19.54;78.99
56340;BME280;42243;42.644;23.366;2023-06-10T02:36:10;94078.28;;;19.17;78.30
56340;BME280;42243;42.644;23.366;2023-06-10T02:38:39;94121.63;;;19.52;77.72
56340;BME280;42243;42.644;23.366;2023-06-10T02:41:05;94122.69;;;19.56;77.63
56340;BME280;42243;42.644;23.366;2023-06-10T02:43:31;94108.16;;;19.44;77.69
56340;BME280;42243;42.644;23.366;2023-06-10T02:45:56;94127.44;;;19.59;77.33
56340;BME280;42243;42.644;23.366;2023-06-10T02:48:23;94125.56;;;19.70;77.03
56340;BME280;42243;42.644;23.366;2023-06-10T02:50:49;94037.88;;;19.01;77.41
56340;BME280;42243;42.644;23.366;2023-06-10T02:53:14;94011.72;;;18.85;77.18
56340;BME280;42243;42.644;23.366;2023-06-10T02:55:40;94071.34;;;18.75;79.29
56340;BME280;42243;42.644;23.366;2023-06-10T02:58:06;94087.41;;;18.48;82.20
56340;BME280;42243;42.644;23.366;2023-06-10T03:00:32;94124.41;;;18.64;83.77
56340;BME280;42243;42.644;23.366;2023-06-10T03:02:58;94082.84;;;18.28;83.74
56340;BME280;42243;42.644;23.366;2023-06-10T03:05:28;94043.28;;;17.70;84.98
56340;BME280;42243;42.644;23.366;2023-06-10T03:07:53;94069.78;;;17.91;84.82
56340;BME280;42243;42.644;23.366;2023-06-10T03:10:18;94136.25;;;18.51;83.82
56340;BME280;42243;42.644;23.366;2023-06-10T03:12:44;94128.56;;;18.39;84.28
56340;BME280;42243;42.644;23.366;2023-06-10T03:15:09;94134.63;;;18.39;84.37
56340;BME280;42243;42.644;23.366;2023-06-10T03:17:35;94082.19;;;17.95;85.36
56340;BME280;42243;42.644;23.366;2023-06-10T03:20:00;94135.22;;;18.62;84.80
56340;BME280;42243;42.644;23.366;2023-06-10T03:22:26;94078.16;;;18.35;84.38
56340;BME280;42243;42.644;23.366;2023-06-10T03:24:51;94021.25;;;17.92;85.12
56340;BME280;42243;42.644;23.366;2023-06-10T03:27:18;94076.84;;;18.48;84.38
56340;BME280;42243;42.644;23.366;2023-06-10T03:29:44;94148.97;;;18.64;86.35
56340;BME280;42243;42.644;23.366;2023-06-10T03:32:10;94149.47;;;18.61;87.11
56340;BME280;42243;42.644;23.366;2023-06-10T03:34:35;94150.53;;;18.65;86.99
56340;BME280;42243;42.644;23.366;2023-06-10T03:37:00;94133.13;;;18.69;86.46
56340;BME280;42243;42.644;23.366;2023-06-10T03:39:26;94137.41;;;18.80;85.77
56340;BME280;42243;42.644;23.366;2023-06-10T03:41:54;94077.94;;;18.57;85.17
56340;BME280;42243;42.644;23.366;2023-06-10T03:44:20;94105.22;;;18.84;84.84
56340;BME280;42243;42.644;23.366;2023-06-10T03:46:45;94100.72;;;18.84;84.77
56340;BME280;42243;42.644;23.366;2023-06-10T03:49:12;94058.66;;;18.57;84.27
56340;BME280;42243;42.644;23.366;2023-06-10T03:51:38;94037.78;;;18.50;84.25
56340;BME280;42243;42.644;23.366;2023-06-10T03:54:03;94157.31;;;19.50;83.88
56340;BME280;42243;42.644;23.366;2023-06-10T03:56:29;94125.84;;;19.38;83.60
56340;BME280;42243;42.644;23.366;2023-06-10T03:58:54;94096.78;;;18.92;84.59
56340;BME280;42243;42.644;23.366;2023-06-10T04:01:21;94108.97;;;19.18;84.19
56340;BME280;42243;42.644;23.366;2023-06-10T04:03:47;94096.78;;;19.17;83.92
56340;BME280;42243;42.644;23.366;2023-06-10T04:06:14;94108.28;;;18.55;85.00
56340;BME280;42243;42.644;23.366;2023-06-10T04:08:40;94092.78;;;18.00;88.44
56340;BME280;42243;42.644;23.366;2023-06-10T04:11:05;94149.44;;;17.98;89.84
56340;BME280;42243;42.644;23.366;2023-06-10T04:13:31;94146.97;;;17.81;90.84
56340;BME280;42243;42.644;23.366;2023-06-10T04:15:56;94094.59;;;17.52;90.93
56340;BME280;42243;42.644;23.366;2023-06-10T04:18:22;94154.31;;;17.79;91.83
56340;BME280;42243;42.644;23.366;2023-06-10T04:20:47;94169.94;;;17.86;92.23
56340;BME280;42243;42.644;23.366;2023-06-10T04:23:13;94099.97;;;17.30;93.12
56340;BME280;42243;42.644;23.366;2023-06-10T04:25:38;94179.09;;;17.78;93.70
56340;BME280;42243;42.644;23.366;2023-06-10T04:28:04;94115.66;;;17.52;93.16
56340;BME280;42243;42.644;23.366;2023-06-10T04:30:29;94142.94;;;17.68;93.73
56340;BME280;42243;42.644;23.366;2023-06-10T04:32:56;94176.41;;;18.05;92.49
56340;BME280;42243;42.644;23.366;2023-06-10T04:35:22;94069.50;;;17.07;93.78
56340;BME280;42243;42.644;23.366;2023-06-10T04:37:47;94175.75;;;17.55;94.80
56340;BME280;42243;42.644;23.366;2023-06-10T04:40:12;94173.19;;;17.66;94.44
56340;BME280;42243;42.644;23.366;2023-06-10T04:42:38;94095.63;;;17.51;93.02
56340;BME280;42243;42.644;23.366;2023-06-10T04:45:04;94146.13;;;18.18;90.83
56340;BME280;42243;42.644;23.366;2023-06-10T04:47:30;94097.66;;;17.81;89.47
56340;BME280;42243;42.644;23.366;2023-06-10T04:50:02;94139.31;;;18.27;88.91
56340;BME280;42243;42.644;23.366;2023-06-10T04:52:28;94076.97;;;18.00;87.00
56340;BME280;42243;42.644;23.366;2023-06-10T04:54:54;94071.63;;;17.90;86.53
56340;BME280;42243;42.644;23.366;2023-06-10T04:57:21;94103.66;;;18.19;85.81
56340;BME280;42243;42.644;23.366;2023-06-10T04:59:47;94140.47;;;18.52;85.32
56340;BME280;42243;42.644;23.366;2023-06-10T05:02:12;94111.97;;;18.54;84.04
56340;BME280;42243;42.644;23.366;2023-06-10T05:04:37;94127.31;;;18.62;84.37
56340;BME280;42243;42.644;23.366;2023-06-10T05:07:03;94042.44;;;18.12;83.94
56340;BME280;42243;42.644;23.366;2023-06-10T05:09:29;94160.72;;;19.04;83.66
56340;BME280;42243;42.644;23.366;2023-06-10T05:11:54;94142.75;;;19.11;82.91
56340;BME280;42243;42.644;23.366;2023-06-10T05:14:19;94061.84;;;18.69;82.18
56340;BME280;42243;42.644;23.366;2023-06-10T05:16:46;94119.50;;;19.03;82.40
56340;BME280;42243;42.644;23.366;2023-06-10T05:19:12;94088.31;;;19.05;81.63
56340;BME280;42243;42.644;23.366;2023-06-10T05:21:37;94100.22;;;19.02;81.88
56340;BME280;42243;42.644;23.366;2023-06-10T05:24:03;94114.78;;;19.20;81.34
56340;BME280;42243;42.644;23.366;2023-06-10T05:26:28;94071.66;;;18.89;81.71
56340;BME280;42243;42.644;23.366;2023-06-10T05:28:56;94130.34;;;19.37;81.29
56340;BME280;42243;42.644;23.366;2023-06-10T05:31:22;94078.03;;;19.19;80.75
56340;BME280;42243;42.644;23.366;2023-06-10T05:33:47;94148.06;;;19.62;79.87
56340;BME280;42243;42.644;23.366;2023-06-10T05:36:12;94173.22;;;19.75;80.19
56340;BME280;42243;42.644;23.366;2023-06-10T05:38:38;94158.91;;;19.76;81.65
56340;BME280;42243;42.644;23.366;2023-06-10T05:41:03;94160.75;;;19.86;81.67
56340;BME280;42243;42.644;23.366;2023-06-10T05:43:29;94143.59;;;19.73;81.66
56340;BME280;42243;42.644;23.366;2023-06-10T05:45:54;94106.31;;;19.49;81.53
56340;BME280;42243;42.644;23.366;2023-06-10T05:48:20;94160.78;;;19.91;81.70
56340;BME280;42243;42.644;23.366;2023-06-10T05:50:45;94140.66;;;19.90;81.03
56340;BME280;42243;42.644;23.366;2023-06-10T05:53:14;94098.88;;;19.61;80.93
56340;BME280;42243;42.644;23.366;2023-06-10T05:55:44;94181.88;;;20.22;81.16
56340;BME280;42243;42.644;23.366;2023-06-10T05:58:10;94175.75;;;20.32;80.98
56340;BME280;42243;42.644;23.366;2023-06-10T06:00:41;94180.50;;;20.40;80.52
56340;BME280;42243;42.644;23.366;2023-06-10T06:03:07;94156.16;;;20.33;80.31
56340;BME280;42243;42.644;23.366;2023-06-10T06:05:38;94096.13;;;20.18;78.94
56340;BME280;42243;42.644;23.366;2023-06-10T06:08:05;94088.69;;;20.25;78.45
56340;BME280;42243;42.644;23.366;2023-06-10T06:10:30;94139.66;;;20.61;78.49
56340;BME280;42243;42.644;23.366;2023-06-10T06:12:56;94191.75;;;20.81;78.18
56340;BME280;42243;42.644;23.366;2023-06-10T06:15:21;94015.88;;;19.73;77.93
56340;BME280;42243;42.644;23.366;2023-06-10T06:17:47;94150.72;;;20.74;78.14
56340;BME280;42243;42.644;23.366;2023-06-10T06:20:12;94158.97;;;20.72;78.05
56340;BME280;42243;42.644;23.366;2023-06-10T06:22:37;94159.75;;;20.68;78.38
56340;BME280;42243;42.644;23.366;2023-06-10T06:25:03;94176.38;;;20.84;78.33
56340;BME280;42243;42.644;23.366;2023-06-10T06:27:29;94169.53;;;20.77;78.18
56340;BME280;42243;42.644;23.366;2023-06-10T06:29:54;94179.81;;;20.89;78.38
56340;BME280;42243;42.644;23.366;2023-06-10T06:32:20;94151.75;;;20.78;78.09
56340;BME280;42243;42.644;23.366;2023-06-10T06:34:47;94098.66;;;20.49;78.10
56340;BME280;42243;42.644;23.366;2023-06-10T06:37:14;94132.22;;;20.69;78.30
56340;BME280;42243;42.644;23.366;2023-06-10T06:39:40;94120.84;;;20.68;78.36
56340;BME280;42243;42.644;23.366;2023-06-10T06:42:05;94174.63;;;21.13;77.61
56340;BME280;42243;42.644;23.366;2023-06-10T06:44:31;94141.28;;;21.02;77.86
56340;BME280;42243;42.644;23.366;2023-06-10T06:46:57;94174.22;;;21.35;77.08
56340;BME280;42243;42.644;23.366;2023-06-10T06:49:22;94171.00;;;21.38;76.76
56340;BME280;42243;42.644;23.366;2023-06-10T06:51:47;94132.69;;;21.20;76.40
56340;BME280;42243;42.644;23.366;2023-06-10T06:54:13;94098.38;;;21.05;76.29
56340;BME280;42243;42.644;23.366;2023-06-10T06:56:38;94141.16;;;21.23;75.96
56340;BME280;42243;42.644;23.366;2023-06-10T06:59:04;94163.56;;;21.40;75.05
56340;BME280;42243;42.644;23.366;2023-06-10T07:01:32;94170.75;;;21.45;75.06
56340;BME280;42243;42.644;23.366;2023-06-10T07:03:58;94165.28;;;21.66;74.58
56340;BME280;42243;42.644;23.366;2023-06-10T07:06:23;94160.44;;;21.73;74.28
56340;BME280;42243;42.644;23.366;2023-06-10T07:08:50;94073.59;;;21.54;72.88
56340;BME280;42243;42.644;23.366;2023-06-10T07:11:16;94075.88;;;21.66;71.93
56340;BME280;42243;42.644;23.366;2023-06-10T07:13:42;94160.81;;;22.44;71.01
56340;BME280;42243;42.644;23.366;2023-06-10T07:16:08;94154.59;;;22.77;69.79
56340;BME280;42243;42.644;23.366;2023-06-10T07:18:33;94127.38;;;22.86;68.62
56340;BME280;42243;42.644;23.366;2023-06-10T07:20:59;94145.66;;;23.63;67.22
56340;BME280;42243;42.644;23.366;2023-06-10T07:23:24;94148.75;;;24.03;64.71
56340;BME280;42243;42.644;23.366;2023-06-10T07:25:50;94149.63;;;24.12;64.65
56340;BME280;42243;42.644;23.366;2023-06-10T07:28:15;94084.00;;;23.75;64.18
56340;BME280;42243;42.644;23.366;2023-06-10T07:30:41;94148.22;;;25.48;60.21
56340;BME280;42243;42.644;23.366;2023-06-10T07:33:06;94137.63;;;27.87;54.50
56340;BME280;42243;42.644;23.366;2023-06-10T07:35:33;94140.84;;;29.80;48.51
56340;BME280;42243;42.644;23.366;2023-06-10T07:37:58;94133.44;;;32.65;41.55
56340;BME280;42243;42.644;23.366;2023-06-10T07:40:24;94128.22;;;32.57;40.34
56340;BME280;42243;42.644;23.366;2023-06-10T07:42:49;94136.41;;;31.03;41.93
56340;BME280;42243;42.644;23.366;2023-06-10T07:45:15;94141.69;;;30.17;44.30
56340;BME280;42243;42.644;23.366;2023-06-10T07:47:40;94150.31;;;30.10;44.94
56340;BME280;42243;42.644;23.366;2023-06-10T07:50:06;94143.38;;;31.45;41.38
56340;BME280;42243;42.644;23.366;2023-06-10T07:52:31;94111.56;;;33.41;37.59
56340;BME280;42243;42.644;23.366;2023-06-10T07:54:57;94135.41;;;32.68;38.80
56340;BME280;42243;42.644;23.366;2023-06-10T07:57:22;94130.19;;;32.28;39.02
56340;BME280;42243;42.644;23.366;2023-06-10T07:59:47;94090.47;;;31.97;39.40
56340;BME280;42243;42.644;23.366;2023-06-10T08:02:14;94130.28;;;31.87;39.46
56340;BME280;42243;42.644;23.366;2023-06-10T08:04:39;94104.22;;;30.82;38.99
56340;BME280;42243;42.644;23.366;2023-06-10T08:07:06;94102.84;;;30.14;41.01
56340;BME280;42243;42.644;23.366;2023-06-10T08:09:31;94140.34;;;30.11;42.38
56340;BME280;42243;42.644;23.366;2023-06-10T08:11:57;94061.91;;;29.84;43.53
56340;BME280;42243;42.644;23.366;2023-06-10T08:14:22;94084.00;;;29.56;41.29
56340;BME280;42243;42.644;23.366;2023-06-10T08:16:47;94047.91;;;29.45;43.36
56340;BME280;42243;42.644;23.366;2023-06-10T08:19:13;94085.22;;;29.92;43.51
56340;BME280;42243;42.644;23.366;2023-06-10T08:21:38;94088.59;;;30.02;43.10
56340;BME280;42243;42.644;23.366;2023-06-10T08:24:06;94060.47;;;29.53;43.09
56340;BME280;42243;42.644;23.366;2023-06-10T08:26:32;94114.13;;;29.95;43.71
56340;BME280;42243;42.644;23.366;2023-06-10T08:28:57;94124.66;;;30.01;41.49
56340;BME280;42243;42.644;23.366;2023-06-10T08:31:22;94051.84;;;29.81;40.48
56340;BME280;42243;42.644;23.366;2023-06-10T08:33:48;94116.81;;;29.95;39.45
56340;BME280;42243;42.644;23.366;2023-06-10T08:36:13;94113.50;;;29.44;36.82
56340;BME280;42243;42.644;23.366;2023-06-10T08:38:39;94015.50;;;28.96;36.86
56340;BME280;42243;42.644;23.366;2023-06-10T08:41:05;94115.63;;;29.72;38.35
56340;BME280;42243;42.644;23.366;2023-06-10T08:43:40;94113.84;;;29.76;37.36
56340;BME280;42243;42.644;23.366;2023-06-10T08:46:09;94067.38;;;29.42;37.18
56340;BME280;42243;42.644;23.366;2023-06-10T08:48:39;94113.81;;;29.43;38.05
56340;BME280;42243;42.644;23.366;2023-06-10T08:51:07;94056.84;;;28.53;37.89
56340;BME280;42243;42.644;23.366;2023-06-10T08:53:36;94099.47;;;28.67;38.90
56340;BME280;42243;42.644;23.366;2023-06-10T08:56:04;94100.13;;;28.93;38.61
56340;BME280;42243;42.644;23.366;2023-06-10T08:58:31;94029.09;;;28.40;39.59
56340;BME280;42243;42.644;23.366;2023-06-10T09:00:58;94081.22;;;28.90;39.50
56340;BME280;42243;42.644;23.366;2023-06-10T09:03:25;94102.34;;;29.33;39.34
56340;BME280;42243;42.644;23.366;2023-06-10T09:05:50;94051.06;;;29.14;40.14
56340;BME280;42243;42.644;23.366;2023-06-10T09:08:16;94054.13;;;29.25;41.08
56340;BME280;42243;42.644;23.366;2023-06-10T09:10:42;94068.03;;;29.39;39.28
56340;BME280;42243;42.644;23.366;2023-06-10T09:13:07;94090.50;;;29.68;38.43
56340;BME280;42243;42.644;23.366;2023-06-10T09:15:33;93992.41;;;28.83;38.72
56340;BME280;42243;42.644;23.366;2023-06-10T09:17:59;94093.00;;;29.19;39.06
56340;BME280;42243;42.644;23.366;2023-06-10T09:20:25;94077.13;;;28.24;37.31
56340;BME280;42243;42.644;23.366;2023-06-10T09:22:51;94074.38;;;28.03;37.88
56340;BME280;42243;42.644;23.366;2023-06-10T09:25:16;94080.84;;;28.70;37.67
56340;BME280;42243;42.644;23.366;2023-06-10T09:30:34;94079.31;;;29.11;39.20
56340;BME280;42243;42.644;23.366;2023-06-10T09:33:02;94074.72;;;29.33;37.05
56340;BME280;42243;42.644;23.366;2023-06-10T09:35:29;94072.31;;;29.40;36.63
56340;BME280;42243;42.644;23.366;2023-06-10T09:37:59;94076.91;;;29.52;36.41
56340;BME280;42243;42.644;23.366;2023-06-10T09:40:25;94025.00;;;29.14;37.78
56340;BME280;42243;42.644;23.366;2023-06-10T09:43:00;94069.88;;;29.60;35.76
56340;BME280;42243;42.644;23.366;2023-06-10T09:45:32;94057.84;;;29.32;36.36
56340;BME280;42243;42.644;23.366;2023-06-10T09:47:58;94067.06;;;29.02;34.83
56340;BME280;42243;42.644;23.366;2023-06-10T09:50:23;94005.22;;;28.56;35.88
56340;BME280;42243;42.644;23.366;2023-06-10T09:52:50;94067.56;;;28.95;34.98
56340;BME280;42243;42.644;23.366;2023-06-10T09:55:16;94057.84;;;28.90;36.11
56340;BME280;42243;42.644;23.366;2023-06-10T09:57:42;94055.88;;;29.00;35.71
56340;BME280;42243;42.644;23.366;2023-06-10T10:00:10;94055.22;;;29.03;36.27
56340;BME280;42243;42.644;23.366;2023-06-10T10:02:48;93991.25;;;28.71;37.42
56340;BME280;42243;42.644;23.366;2023-06-10T10:05:15;94049.31;;;29.09;36.71
56340;BME280;42243;42.644;23.366;2023-06-10T10:07:41;93980.84;;;28.19;37.40
56340;BME280;42243;42.644;23.366;2023-06-10T10:10:07;93950.16;;;28.08;38.33
56340;BME280;42243;42.644;23.366;2023-06-10T10:12:34;94020.53;;;27.87;38.73
56340;BME280;42243;42.644;23.366;2023-06-10T10:15:02;93976.09;;;26.00;41.59
56340;BME280;42243;42.644;23.366;2023-06-10T10:17:27;94038.00;;;26.76;41.07
56340;BME280;42243;42.644;23.366;2023-06-10T10:19:59;94035.22;;;26.24;42.10
56340;BME280;42243;42.644;23.366;2023-06-10T10:22:34;94032.56;;;26.42;42.19
56340;BME280;42243;42.644;23.366;2023-06-10T10:25:02;94030.44;;;26.70;42.62
56340;BME280;42243;42.644;23.366;2023-06-10T10:27:33;94036.13;;;27.29;42.43
56340;BME280;42243;42.644;23.366;2023-06-10T10:30:02;94026.06;;;26.91;41.16
56340;BME280;42243;42.644;23.366;2023-06-10T10:32:35;94021.88;;;25.84;43.32
56340;BME280;42243;42.644;23.366;2023-06-10T10:35:08;93987.03;;;25.89;43.00
56340;BME280;42243;42.644;23.366;2023-06-10T10:37:35;94035.94;;;26.07;42.12
56340;BME280;42243;42.644;23.366;2023-06-10T10:40:02;94032.75;;;26.36;43.59
56340;BME280;42243;42.644;23.366;2023-06-10T10:42:28;94028.53;;;26.62;41.63
56340;BME280;42243;42.644;23.366;2023-06-10T10:44:55;94022.94;;;26.23;41.21
56340;BME280;42243;42.644;23.366;2023-06-10T10:47:21;94024.84;;;25.83;42.09
56340;BME280;42243;42.644;23.366;2023-06-10T10:49:51;93973.41;;;25.06;42.65
56340;BME280;42243;42.644;23.366;2023-06-10T10:52:20;94014.72;;;25.93;42.18
56340;BME280;42243;42.644;23.366;2023-06-10T10:54:46;94014.31;;;26.26;41.57
56340;BME280;42243;42.644;23.366;2023-06-10T10:57:19;93982.28;;;25.86;42.86
56340;BME280;42243;42.644;23.366;2023-06-10T11:02:52;94008.22;;;26.34;41.53
56340;BME280;42243;42.644;23.366;2023-06-10T11:05:31;94004.94;;;26.46;41.74
56340;BME280;42243;42.644;23.366;2023-06-10T11:07:57;94008.06;;;26.48;41.75
56340;BME280;42243;42.644;23.366;2023-06-10T11:10:51;94001.66;;;26.58;41.49
56340;BME280;42243;42.644;23.366;2023-06-10T11:13:21;93940.47;;;26.30;40.58
56340;BME280;42243;42.644;23.366;2023-06-10T11:15:50;93939.22;;;26.28;41.80
56340;BME280;42243;42.644;23.366;2023-06-10T11:18:35;93983.34;;;25.76;43.78
56340;BME280;42243;42.644;23.366;2023-06-10T11:21:04;93908.31;;;24.39;45.47
56340;BME280;42243;42.644;23.366;2023-06-10T11:26:14;93981.28;;;25.33;44.50
56340;BME280;42243;42.644;23.366;2023-06-10T11:28:41;93983.63;;;25.66;43.32
56340;BME280;42243;42.644;23.366;2023-06-10T11:31:07;93953.31;;;26.02;44.41
56340;BME280;42243;42.644;23.366;2023-06-10T11:33:32;93967.97;;;26.39;41.88
56340;BME280;42243;42.644;23.366;2023-06-10T11:35:58;93975.38;;;26.43;42.17
56340;BME280;42243;42.644;23.366;2023-06-10T11:38:24;93969.69;;;26.35;42.02
56340;BME280;42243;42.644;23.366;2023-06-10T11:40:50;93935.56;;;26.15;42.00
56340;BME280;42243;42.644;23.366;2023-06-10T11:43:19;93879.56;;;25.84;40.09
56340;BME280;42243;42.644;23.366;2023-06-10T11:45:45;93865.75;;;25.82;40.55
56340;BME280;42243;42.644;23.366;2023-06-10T11:48:12;93944.25;;;26.73;41.04
56340;BME280;42243;42.644;23.366;2023-06-10T11:50:38;93932.75;;;26.37;40.73
56340;BME280;42243;42.644;23.366;2023-06-10T11:53:03;93945.75;;;25.55;42.32
56340;BME280;42243;42.644;23.366;2023-06-10T11:55:45;93898.09;;;25.80;42.35
56340;BME280;42243;42.644;23.366;2023-06-10T11:58:13;93945.47;;;26.23;41.96
56340;BME280;42243;42.644;23.366;2023-06-10T12:00:49;93953.47;;;25.26;43.79
56340;BME280;42243;42.644;23.366;2023-06-10T12:03:15;93852.78;;;24.77;43.94
56340;BME280;42243;42.644;23.366;2023-06-10T12:08:21;93919.44;;;25.71;42.73
56340;BME280;42243;42.644;23.366;2023-06-10T12:10:47;93948.63;;;26.25;40.62
56340;BME280;42243;42.644;23.366;2023-06-10T12:13:12;93939.34;;;25.65;42.19
56340;BME280;42243;42.644;23.366;2023-06-10T12:15:38;93875.78;;;25.27;42.97
56340;BME280;42243;42.644;23.366;2023-06-10T12:18:03;93901.56;;;25.89;43.23
56340;BME280;42243;42.644;23.366;2023-06-10T12:20:31;93950.31;;;26.04;41.08
56340;BME280;42243;42.644;23.366;2023-06-10T12:23:00;93875.69;;;25.41;40.39
56340;BME280;42243;42.644;23.366;2023-06-10T12:25:33;93943.28;;;26.25;40.62
56340;BME280;42243;42.644;23.366;2023-06-10T12:27:59;93930.38;;;26.27;39.50
56340;BME280;42243;42.644;23.366;2023-06-10T12:30:25;93936.56;;;26.71;38.99
56340;BME280;42243;42.644;23.366;2023-06-10T12:32:51;93915.44;;;26.44;38.63
56340;BME280;42243;42.644;23.366;2023-06-10T12:35:19;93902.88;;;26.53;37.86
56340;BME280;42243;42.644;23.366;2023-06-10T12:38:04;93927.72;;;26.62;38.91
56340;BME280;42243;42.644;23.366;2023-06-10T12:40:38;93929.59;;;26.88;38.79
56340;BME280;42243;42.644;23.366;2023-06-10T12:43:05;93917.31;;;26.95;38.53
56340;BME280;42243;42.644;23.366;2023-06-10T12:45:33;93917.88;;;27.18;38.97
56340;BME280;42243;42.644;23.366;2023-06-10T12:48:17;93875.97;;;26.93;39.26
56340;BME280;42243;42.644;23.366;2023-06-10T12:50:43;93906.88;;;27.29;39.07
56340;BME280;42243;42.644;23.366;2023-06-10T12:53:10;93917.09;;;27.35;38.42
56340;BME280;42243;42.644;23.366;2023-06-10T12:55:36;93921.59;;;27.52;38.48
56340;BME280;42243;42.644;23.366;2023-06-10T12:58:02;93906.19;;;27.41;38.18
56340;BME280;42243;42.644;23.366;2023-06-10T13:00:28;93918.94;;;27.44;38.30